Flight Track Log - Related Links

Times and Time Zones

All times are in EDT time to prevent confusion due to time zone crossing. See the UCA3596 flight status page for this flight to view local times or setup timezone preferences in your user account.

Time Position Orientation Groundspeed Altitude Reporting Facility
EDT Latitude Longitude Course Direction KTS MPH feet Rate Location/Type
Mon 08:28:23 PM 40.6833 -74.2167 246° West 135 155 1,800  Level New York TRACON
Mon 08:29:17 PM 40.6667 -74.2667 246° West 152 175 2,800 1,000 Climbing New York TRACON
Mon 08:30:23 PM 40.6667 -74.3333 270° West 175 201 3,800 619 Climbing New York TRACON
Mon 08:31:23 PM 40.6500 -74.4000 252° West 201 231 4,100 150 Climbing New York TRACON
Mon 08:32:23 PM 40.6333 -74.4667 252° West 219 252 4,100  Level New York TRACON
Mon 08:33:29 PM 40.6167 -74.5500 255° West 222 255 4,100  Level New York TRACON
Mon 08:34:29 PM 40.6167 -74.6333 258° West 226 260 4,100  Level New York TRACON
Mon 08:35:23 PM 40.6167 -74.7167 270° West 230 265 4,100  Level New York TRACON
Mon 08:36:23 PM 40.6333 -74.8000 285° West 228 262 4,100 504 Level New York TRACON
Mon 08:37:34 PM 40.6461 -74.8847 281° West 208 239 5,200 896 Climbing New York Center
Mon 08:38:37 PM 40.6539 -74.9589 278° West 183 211 6,100 390 Climbing New York Center
Mon 08:39:37 PM 40.6744 -75.0286 291° West 226 260 6,000 -50 Descending New York Center
Mon 08:40:38 PM 40.7133 -75.1022 305° West 239 275 6,000  Level New York Center
Mon 08:42:00 PM 40.7965 -75.1499 286° West  Level Estimated
Mon 08:49:00 PM 41.0164 -75.4500 North  Level FlightAware Approximate
Mon 08:50:00 PM 41.0827 -75.4538 357° North  Level FlightAware Approximate
Mon 08:51:00 PM 41.1490 -75.4589 357° North  Level FlightAware Approximate
Mon 08:52:00 PM 41.2152 -75.4640 357° North  Level FlightAware Approximate
Mon 08:53:00 PM 41.2815 -75.4667 North  Level FlightAware Approximate
Mon 08:54:00 PM 41.3479 -75.4667 North  Level FlightAware Approximate
Mon 08:55:00 PM 41.4142 -75.4667 North  Level FlightAware Approximate
Mon 08:56:00 PM 41.4778 -75.4778 323° Northwest  Level FlightAware Approximate
Mon 08:57:00 PM 41.5310 -75.5308 323° Northwest  Level FlightAware Approximate
Mon 08:58:00 PM 41.5841 -75.5839 323° Northwest  Level FlightAware Approximate
Mon 08:59:00 PM 41.6373 -75.6370 323° Northwest  Level FlightAware Approximate
Mon 09:00:00 PM 41.6904 -75.6903 323° Northwest  Level FlightAware Approximate
Mon 09:01:00 PM 41.7478 -75.7332 338° Northwest  Level FlightAware Approximate
Mon 09:02:00 PM 41.8095 -75.7661 338° Northwest  Level FlightAware Approximate
Mon 09:03:00 PM 41.8712 -75.7989 338° Northwest  Level FlightAware Approximate
Mon 09:04:00 PM 41.9328 -75.8319 338° Northwest  Level FlightAware Approximate
Mon 09:05:00 PM 41.9954 -75.8615 343° North  Level FlightAware Approximate
Mon 09:06:00 PM 42.0575 -75.8908 323° Northwest  Level FlightAware Approximate
Mon 09:07:00 PM 42.1154 -75.9327 340° North  Level FlightAware Approximate
Mon 09:08:00 PM 42.1790 -75.9583 343° North  Level FlightAware Approximate
Mon 09:09:00 PM 42.2000 -75.9667 North  Level FlightAware Approximate
Mon 09:10:00 PM 42.2084 -75.9796 90° East  Level Estimated
Mon 09:11:00 PM 42.2084 -75.9796 North  Level Estimated
Mon 09:12:00 PM 42.2084 -75.9796 131° Southeast  Level Estimated
Mon 09:13:00 PM 42.2084 -75.9796 North  Level Estimated
Mon 09:14:00 PM 42.2084 -75.9796 131° Southeast  Level Estimated
Mon 09:15:00 PM 42.2084 -75.9796 North  Level Estimated
Mon 09:16:00 PM 42.2084 -75.9796 131° Southeast  Level Estimated

Login

Don't have an account? Register now (free) for customized features, flight alerts, and more!